sensor_id;sensor_type;location;lat;lon;timestamp;P1;durP1;ratioP1;P2;durP2;ratioP2
12840;SDS011;6487;48.626;12.486;2023-03-12T00:01:10;3.57;;;2.73;;
12840;SDS011;6487;48.626;12.486;2023-03-12T00:03:42;3.20;;;2.90;;
12840;SDS011;6487;48.626;12.486;2023-03-12T00:06:11;5.43;;;3.30;;
12840;SDS011;6487;48.626;12.486;2023-03-12T00:08:39;5.67;;;4.20;;
12840;SDS011;6487;48.626;12.486;2023-03-12T00:11:09;4.17;;;3.57;;
12840;SDS011;6487;48.626;12.486;2023-03-12T00:13:41;4.17;;;3.77;;
12840;SDS011;6487;48.626;12.486;2023-03-12T00:16:11;5.90;;;3.83;;
12840;SDS011;6487;48.626;12.486;2023-03-12T00:18:41;5.27;;;3.60;;
12840;SDS011;6487;48.626;12.486;2023-03-12T00:21:10;3.43;;;3.00;;
12840;SDS011;6487;48.626;12.486;2023-03-12T00:23:39;4.97;;;3.57;;
12840;SDS011;6487;48.626;12.486;2023-03-12T00:26:08;4.10;;;3.10;;
12840;SDS011;6487;48.626;12.486;2023-03-12T00:28:39;4.10;;;3.10;;
12840;SDS011;6487;48.626;12.486;2023-03-12T00:31:12;3.13;;;2.73;;
12840;SDS011;6487;48.626;12.486;2023-03-12T00:33:43;3.47;;;2.70;;
12840;SDS011;6487;48.626;12.486;2023-03-12T00:36:12;4.43;;;3.37;;
12840;SDS011;6487;48.626;12.486;2023-03-12T00:38:40;4.80;;;3.07;;
12840;SDS011;6487;48.626;12.486;2023-03-12T00:41:08;3.17;;;2.80;;
12840;SDS011;6487;48.626;12.486;2023-03-12T00:43:37;4.50;;;3.17;;
12840;SDS011;6487;48.626;12.486;2023-03-12T00:46:07;3.73;;;3.00;;
12840;SDS011;6487;48.626;12.486;2023-03-12T00:48:35;5.23;;;3.37;;
12840;SDS011;6487;48.626;12.486;2023-03-12T00:51:04;4.70;;;3.63;;
12840;SDS011;6487;48.626;12.486;2023-03-12T00:53:32;4.83;;;3.80;;
12840;SDS011;6487;48.626;12.486;2023-03-12T00:56:01;3.80;;;3.07;;
12840;SDS011;6487;48.626;12.486;2023-03-12T00:58:29;4.73;;;3.47;;
12840;SDS011;6487;48.626;12.486;2023-03-12T01:00:58;4.53;;;3.60;;
12840;SDS011;6487;48.626;12.486;2023-03-12T01:03:27;4.37;;;3.47;;
12840;SDS011;6487;48.626;12.486;2023-03-12T01:05:56;5.57;;;3.63;;
12840;SDS011;6487;48.626;12.486;2023-03-12T01:08:24;6.60;;;3.90;;
12840;SDS011;6487;48.626;12.486;2023-03-12T01:10:52;6.00;;;3.50;;
12840;SDS011;6487;48.626;12.486;2023-03-12T01:13:21;5.00;;;3.53;;
12840;SDS011;6487;48.626;12.486;2023-03-12T01:15:49;5.03;;;3.57;;
12840;SDS011;6487;48.626;12.486;2023-03-12T01:18:18;5.93;;;3.30;;
12840;SDS011;6487;48.626;12.486;2023-03-12T01:20:47;6.07;;;3.27;;
12840;SDS011;6487;48.626;12.486;2023-03-12T01:23:16;3.93;;;3.07;;
12840;SDS011;6487;48.626;12.486;2023-03-12T01:25:44;4.47;;;2.73;;
12840;SDS011;6487;48.626;12.486;2023-03-12T01:28:13;4.03;;;3.13;;
12840;SDS011;6487;48.626;12.486;2023-03-12T01:30:42;4.73;;;3.63;;
12840;SDS011;6487;48.626;12.486;2023-03-12T01:33:10;4.13;;;3.10;;
12840;SDS011;6487;48.626;12.486;2023-03-12T01:35:39;6.07;;;3.17;;
12840;SDS011;6487;48.626;12.486;2023-03-12T01:38:10;4.77;;;3.23;;
12840;SDS011;6487;48.626;12.486;2023-03-12T01:40:43;7.27;;;3.40;;
12840;SDS011;6487;48.626;12.486;2023-03-12T01:43:22;4.07;;;3.10;;
12840;SDS011;6487;48.626;12.486;2023-03-12T01:46:05;4.80;;;3.10;;
12840;SDS011;6487;48.626;12.486;2023-03-12T01:48:54;5.67;;;3.13;;
12840;SDS011;6487;48.626;12.486;2023-03-12T01:51:29;5.13;;;3.63;;
12840;SDS011;6487;48.626;12.486;2023-03-12T01:54:05;4.20;;;3.70;;
12840;SDS011;6487;48.626;12.486;2023-03-12T01:56:37;5.80;;;3.87;;
12840;SDS011;6487;48.626;12.486;2023-03-12T01:59:08;5.47;;;3.93;;
12840;SDS011;6487;48.626;12.486;2023-03-12T02:01:41;6.80;;;5.50;;
12840;SDS011;6487;48.626;12.486;2023-03-12T02:04:11;6.37;;;5.40;;
12840;SDS011;6487;48.626;12.486;2023-03-12T02:06:42;7.17;;;6.30;;
12840;SDS011;6487;48.626;12.486;2023-03-12T02:09:17;5.40;;;4.90;;
12840;SDS011;6487;48.626;12.486;2023-03-12T02:11:48;8.87;;;5.20;;
12840;SDS011;6487;48.626;12.486;2023-03-12T02:14:16;5.43;;;4.93;;
12840;SDS011;6487;48.626;12.486;2023-03-12T02:16:45;5.77;;;5.17;;
12840;SDS011;6487;48.626;12.486;2023-03-12T02:19:15;4.90;;;4.37;;
12840;SDS011;6487;48.626;12.486;2023-03-12T02:21:50;4.33;;;3.70;;
12840;SDS011;6487;48.626;12.486;2023-03-12T02:24:23;5.97;;;3.87;;
12840;SDS011;6487;48.626;12.486;2023-03-12T02:26:58;5.13;;;3.53;;
12840;SDS011;6487;48.626;12.486;2023-03-12T02:29:29;4.13;;;3.50;;
12840;SDS011;6487;48.626;12.486;2023-03-12T02:32:00;4.57;;;4.00;;
12840;SDS011;6487;48.626;12.486;2023-03-12T02:34:32;5.43;;;4.20;;
12840;SDS011;6487;48.626;12.486;2023-03-12T02:37:01;5.37;;;3.87;;
12840;SDS011;6487;48.626;12.486;2023-03-12T02:39:29;5.13;;;4.53;;
12840;SDS011;6487;48.626;12.486;2023-03-12T02:41:59;4.53;;;4.13;;
12840;SDS011;6487;48.626;12.486;2023-03-12T02:44:28;4.10;;;3.77;;
12840;SDS011;6487;48.626;12.486;2023-03-12T02:47:01;6.03;;;3.80;;
12840;SDS011;6487;48.626;12.486;2023-03-12T02:49:32;4.60;;;3.87;;
12840;SDS011;6487;48.626;12.486;2023-03-12T02:52:01;3.97;;;3.23;;
12840;SDS011;6487;48.626;12.486;2023-03-12T02:54:30;3.90;;;3.43;;
12840;SDS011;6487;48.626;12.486;2023-03-12T02:57:00;5.53;;;3.63;;
12840;SDS011;6487;48.626;12.486;2023-03-12T02:59:28;5.83;;;3.20;;
12840;SDS011;6487;48.626;12.486;2023-03-12T03:01:57;4.87;;;3.53;;
12840;SDS011;6487;48.626;12.486;2023-03-12T03:04:27;4.73;;;3.30;;
12840;SDS011;6487;48.626;12.486;2023-03-12T03:06:59;4.13;;;3.73;;
12840;SDS011;6487;48.626;12.486;2023-03-12T03:09:28;4.43;;;3.73;;
12840;SDS011;6487;48.626;12.486;2023-03-12T03:11:56;4.10;;;3.50;;
12840;SDS011;6487;48.626;12.486;2023-03-12T03:14:26;5.23;;;3.73;;
12840;SDS011;6487;48.626;12.486;2023-03-12T03:16:54;6.43;;;3.93;;
12840;SDS011;6487;48.626;12.486;2023-03-12T03:19:22;4.87;;;3.90;;
12840;SDS011;6487;48.626;12.486;2023-03-12T03:21:50;3.77;;;3.23;;
12840;SDS011;6487;48.626;12.486;2023-03-12T03:24:19;3.77;;;3.37;;
12840;SDS011;6487;48.626;12.486;2023-03-12T03:26:47;3.93;;;3.20;;
12840;SDS011;6487;48.626;12.486;2023-03-12T03:29:15;3.37;;;2.80;;
12840;SDS011;6487;48.626;12.486;2023-03-12T03:31:45;6.23;;;3.03;;
12840;SDS011;6487;48.626;12.486;2023-03-12T03:34:13;5.50;;;2.93;;
12840;SDS011;6487;48.626;12.486;2023-03-12T03:36:41;5.00;;;3.10;;
12840;SDS011;6487;48.626;12.486;2023-03-12T03:39:09;4.83;;;3.27;;
12840;SDS011;6487;48.626;12.486;2023-03-12T03:41:38;3.27;;;2.63;;
12840;SDS011;6487;48.626;12.486;2023-03-12T03:44:06;3.97;;;2.80;;
12840;SDS011;6487;48.626;12.486;2023-03-12T03:46:34;4.70;;;2.87;;
12840;SDS011;6487;48.626;12.486;2023-03-12T03:49:04;3.67;;;3.00;;
12840;SDS011;6487;48.626;12.486;2023-03-12T03:51:33;3.90;;;3.13;;
12840;SDS011;6487;48.626;12.486;2023-03-12T03:54:01;5.10;;;3.17;;
12840;SDS011;6487;48.626;12.486;2023-03-12T03:56:29;4.07;;;2.70;;
12840;SDS011;6487;48.626;12.486;2023-03-12T03:58:58;4.27;;;2.70;;
12840;SDS011;6487;48.626;12.486;2023-03-12T04:01:27;4.30;;;3.20;;
12840;SDS011;6487;48.626;12.486;2023-03-12T04:03:56;3.60;;;2.73;;
12840;SDS011;6487;48.626;12.486;2023-03-12T04:06:26;3.73;;;3.10;;
12840;SDS011;6487;48.626;12.486;2023-03-12T04:08:55;4.80;;;2.57;;
12840;SDS011;6487;48.626;12.486;2023-03-12T04:11:23;3.23;;;2.70;;
12840;SDS011;6487;48.626;12.486;2023-03-12T04:13:52;6.13;;;3.37;;
12840;SDS011;6487;48.626;12.486;2023-03-12T04:16:20;10.00;;;3.33;;
12840;SDS011;6487;48.626;12.486;2023-03-12T04:18:49;5.13;;;3.77;;
12840;SDS011;6487;48.626;12.486;2023-03-12T04:21:18;3.90;;;3.20;;
12840;SDS011;6487;48.626;12.486;2023-03-12T04:23:48;3.97;;;2.63;;
12840;SDS011;6487;48.626;12.486;2023-03-12T04:26:16;4.73;;;3.60;;
12840;SDS011;6487;48.626;12.486;2023-03-12T04:28:44;4.37;;;2.80;;
12840;SDS011;6487;48.626;12.486;2023-03-12T04:31:13;3.17;;;2.83;;
12840;SDS011;6487;48.626;12.486;2023-03-12T04:33:41;5.73;;;3.27;;
12840;SDS011;6487;48.626;12.486;2023-03-12T04:36:10;4.67;;;3.00;;
12840;SDS011;6487;48.626;12.486;2023-03-12T04:38:39;3.60;;;3.00;;
12840;SDS011;6487;48.626;12.486;2023-03-12T04:41:10;2.93;;;2.67;;
12840;SDS011;6487;48.626;12.486;2023-03-12T04:43:40;6.07;;;3.00;;
12840;SDS011;6487;48.626;12.486;2023-03-12T04:46:09;4.77;;;2.80;;
12840;SDS011;6487;48.626;12.486;2023-03-12T04:48:37;4.40;;;2.80;;
12840;SDS011;6487;48.626;12.486;2023-03-12T04:51:05;4.83;;;3.27;;
12840;SDS011;6487;48.626;12.486;2023-03-12T04:53:34;4.50;;;3.10;;
12840;SDS011;6487;48.626;12.486;2023-03-12T04:56:02;4.50;;;3.17;;
12840;SDS011;6487;48.626;12.486;2023-03-12T04:58:33;3.87;;;3.07;;
12840;SDS011;6487;48.626;12.486;2023-03-12T05:01:02;4.00;;;3.17;;
12840;SDS011;6487;48.626;12.486;2023-03-12T05:03:31;5.23;;;3.60;;
12840;SDS011;6487;48.626;12.486;2023-03-12T05:06:00;4.17;;;3.40;;
12840;SDS011;6487;48.626;12.486;2023-03-12T05:08:28;4.80;;;3.80;;
12840;SDS011;6487;48.626;12.486;2023-03-12T05:10:57;3.93;;;3.30;;
12840;SDS011;6487;48.626;12.486;2023-03-12T05:13:25;5.43;;;3.97;;
12840;SDS011;6487;48.626;12.486;2023-03-12T05:15:55;4.67;;;2.80;;
12840;SDS011;6487;48.626;12.486;2023-03-12T05:18:23;3.73;;;3.43;;
12840;SDS011;6487;48.626;12.486;2023-03-12T05:20:58;5.40;;;3.67;;
12840;SDS011;6487;48.626;12.486;2023-03-12T05:23:28;3.90;;;3.47;;
12840;SDS011;6487;48.626;12.486;2023-03-12T05:25:56;4.30;;;3.77;;
12840;SDS011;6487;48.626;12.486;2023-03-12T05:28:25;4.93;;;3.60;;
12840;SDS011;6487;48.626;12.486;2023-03-12T05:30:56;4.83;;;3.47;;
12840;SDS011;6487;48.626;12.486;2023-03-12T05:33:27;4.07;;;3.57;;
12840;SDS011;6487;48.626;12.486;2023-03-12T05:35:55;5.80;;;3.90;;
12840;SDS011;6487;48.626;12.486;2023-03-12T05:38:24;4.67;;;3.83;;
12840;SDS011;6487;48.626;12.486;2023-03-12T05:40:52;5.80;;;4.07;;
12840;SDS011;6487;48.626;12.486;2023-03-12T05:43:23;5.30;;;3.60;;
12840;SDS011;6487;48.626;12.486;2023-03-12T05:45:52;4.60;;;3.57;;
12840;SDS011;6487;48.626;12.486;2023-03-12T05:48:27;4.37;;;3.77;;
12840;SDS011;6487;48.626;12.486;2023-03-12T05:50:55;6.47;;;4.47;;
12840;SDS011;6487;48.626;12.486;2023-03-12T05:53:24;5.83;;;4.30;;
12840;SDS011;6487;48.626;12.486;2023-03-12T05:55:52;8.93;;;5.47;;
12840;SDS011;6487;48.626;12.486;2023-03-12T05:58:20;8.10;;;6.03;;
12840;SDS011;6487;48.626;12.486;2023-03-12T06:00:49;6.23;;;5.63;;
12840;SDS011;6487;48.626;12.486;2023-03-12T06:03:18;7.80;;;5.43;;
12840;SDS011;6487;48.626;12.486;2023-03-12T06:05:47;5.30;;;4.67;;
12840;SDS011;6487;48.626;12.486;2023-03-12T06:08:15;5.00;;;4.50;;
12840;SDS011;6487;48.626;12.486;2023-03-12T06:10:43;7.53;;;5.30;;
12840;SDS011;6487;48.626;12.486;2023-03-12T06:13:12;7.87;;;5.47;;
12840;SDS011;6487;48.626;12.486;2023-03-12T06:15:40;5.97;;;5.20;;
12840;SDS011;6487;48.626;12.486;2023-03-12T06:18:08;6.97;;;5.27;;
12840;SDS011;6487;48.626;12.486;2023-03-12T06:20:38;11.70;;;5.00;;
12840;SDS011;6487;48.626;12.486;2023-03-12T06:23:06;7.50;;;4.73;;
12840;SDS011;6487;48.626;12.486;2023-03-12T06:25:34;5.50;;;4.73;;
12840;SDS011;6487;48.626;12.486;2023-03-12T06:28:03;6.53;;;4.77;;
12840;SDS011;6487;48.626;12.486;2023-03-12T06:30:31;5.60;;;4.93;;
12840;SDS011;6487;48.626;12.486;2023-03-12T06:33:00;5.57;;;4.70;;
12840;SDS011;6487;48.626;12.486;2023-03-12T06:38:01;9.63;;;5.27;;
12840;SDS011;6487;48.626;12.486;2023-03-12T06:40:30;6.97;;;4.80;;
12840;SDS011;6487;48.626;12.486;2023-03-12T06:42:58;7.77;;;5.27;;
12840;SDS011;6487;48.626;12.486;2023-03-12T06:45:26;10.50;;;6.63;;
12840;SDS011;6487;48.626;12.486;2023-03-12T06:47:55;7.50;;;5.37;;
12840;SDS011;6487;48.626;12.486;2023-03-12T06:50:23;8.40;;;5.43;;
12840;SDS011;6487;48.626;12.486;2023-03-12T06:52:51;7.07;;;5.37;;
12840;SDS011;6487;48.626;12.486;2023-03-12T06:55:21;8.30;;;5.40;;
12840;SDS011;6487;48.626;12.486;2023-03-12T06:57:49;6.80;;;5.10;;
12840;SDS011;6487;48.626;12.486;2023-03-12T07:00:18;6.03;;;4.60;;
12840;SDS011;6487;48.626;12.486;2023-03-12T07:02:47;7.73;;;6.50;;
12840;SDS011;6487;48.626;12.486;2023-03-12T07:05:15;7.80;;;5.80;;
12840;SDS011;6487;48.626;12.486;2023-03-12T07:07:44;8.23;;;5.80;;
12840;SDS011;6487;48.626;12.486;2023-03-12T07:10:12;8.20;;;5.77;;
12840;SDS011;6487;48.626;12.486;2023-03-12T07:12:42;10.67;;;6.67;;
12840;SDS011;6487;48.626;12.486;2023-03-12T07:15:11;7.87;;;6.23;;
12840;SDS011;6487;48.626;12.486;2023-03-12T07:17:39;10.90;;;7.03;;
12840;SDS011;6487;48.626;12.486;2023-03-12T07:20:08;9.60;;;7.00;;
12840;SDS011;6487;48.626;12.486;2023-03-12T07:22:38;7.03;;;5.83;;
12840;SDS011;6487;48.626;12.486;2023-03-12T07:25:06;9.53;;;7.03;;
12840;SDS011;6487;48.626;12.486;2023-03-12T07:27:36;10.43;;;5.97;;
12840;SDS011;6487;48.626;12.486;2023-03-12T07:30:06;7.53;;;5.70;;
12840;SDS011;6487;48.626;12.486;2023-03-12T07:32:36;10.57;;;6.83;;
12840;SDS011;6487;48.626;12.486;2023-03-12T07:35:05;8.57;;;6.70;;
12840;SDS011;6487;48.626;12.486;2023-03-12T07:37:33;9.13;;;7.17;;
12840;SDS011;6487;48.626;12.486;2023-03-12T07:40:02;9.23;;;6.93;;
12840;SDS011;6487;48.626;12.486;2023-03-12T07:42:32;10.37;;;7.00;;
12840;SDS011;6487;48.626;12.486;2023-03-12T07:45:01;7.93;;;5.70;;
12840;SDS011;6487;48.626;12.486;2023-03-12T07:47:31;6.43;;;5.70;;
12840;SDS011;6487;48.626;12.486;2023-03-12T07:49:59;7.03;;;6.03;;
12840;SDS011;6487;48.626;12.486;2023-03-12T07:52:28;7.53;;;5.07;;
12840;SDS011;6487;48.626;12.486;2023-03-12T07:54:56;8.13;;;4.80;;
12840;SDS011;6487;48.626;12.486;2023-03-12T07:57:25;6.00;;;4.93;;
12840;SDS011;6487;48.626;12.486;2023-03-12T07:59:53;7.03;;;4.90;;
12840;SDS011;6487;48.626;12.486;2023-03-12T08:02:22;5.70;;;5.03;;
12840;SDS011;6487;48.626;12.486;2023-03-12T08:04:51;7.90;;;5.10;;
12840;SDS011;6487;48.626;12.486;2023-03-12T08:07:20;6.67;;;4.70;;
12840;SDS011;6487;48.626;12.486;2023-03-12T08:09:48;8.33;;;4.90;;
12840;SDS011;6487;48.626;12.486;2023-03-12T08:12:16;8.80;;;5.40;;
12840;SDS011;6487;48.626;12.486;2023-03-12T08:14:45;7.27;;;5.27;;
12840;SDS011;6487;48.626;12.486;2023-03-12T08:17:13;6.47;;;4.83;;
12840;SDS011;6487;48.626;12.486;2023-03-12T08:19:41;6.17;;;4.80;;
12840;SDS011;6487;48.626;12.486;2023-03-12T08:22:11;9.37;;;5.33;;
12840;SDS011;6487;48.626;12.486;2023-03-12T08:24:39;5.00;;;4.00;;
12840;SDS011;6487;48.626;12.486;2023-03-12T08:27:08;4.60;;;3.70;;
12840;SDS011;6487;48.626;12.486;2023-03-12T08:29:37;4.13;;;3.37;;
12840;SDS011;6487;48.626;12.486;2023-03-12T08:32:06;4.17;;;3.47;;
12840;SDS011;6487;48.626;12.486;2023-03-12T08:34:36;4.57;;;3.30;;
12840;SDS011;6487;48.626;12.486;2023-03-12T08:37:05;3.93;;;2.90;;
12840;SDS011;6487;48.626;12.486;2023-03-12T08:39:34;5.60;;;3.20;;
12840;SDS011;6487;48.626;12.486;2023-03-12T08:42:03;5.50;;;3.10;;
12840;SDS011;6487;48.626;12.486;2023-03-12T08:44:33;2.87;;;2.67;;
12840;SDS011;6487;48.626;12.486;2023-03-12T08:47:01;2.77;;;2.23;;
12840;SDS011;6487;48.626;12.486;2023-03-12T08:49:29;2.70;;;2.00;;
12840;SDS011;6487;48.626;12.486;2023-03-12T08:51:58;2.30;;;2.03;;
12840;SDS011;6487;48.626;12.486;2023-03-12T08:54:27;3.50;;;2.00;;
12840;SDS011;6487;48.626;12.486;2023-03-12T08:56:56;1.57;;;1.40;;
12840;SDS011;6487;48.626;12.486;2023-03-12T08:59:25;2.47;;;1.80;;
12840;SDS011;6487;48.626;12.486;2023-03-12T09:01:53;2.47;;;1.90;;
12840;SDS011;6487;48.626;12.486;2023-03-12T09:04:21;3.57;;;1.87;;
12840;SDS011;6487;48.626;12.486;2023-03-12T09:06:50;2.63;;;1.90;;
12840;SDS011;6487;48.626;12.486;2023-03-12T09:09:18;2.97;;;1.73;;
12840;SDS011;6487;48.626;12.486;2023-03-12T09:11:46;1.50;;;1.40;;
12840;SDS011;6487;48.626;12.486;2023-03-12T09:14:16;2.37;;;1.73;;
12840;SDS011;6487;48.626;12.486;2023-03-12T09:17:04;2.70;;;1.90;;
12840;SDS011;6487;48.626;12.486;2023-03-12T09:19:33;4.50;;;2.30;;
12840;SDS011;6487;48.626;12.486;2023-03-12T09:22:01;2.50;;;2.00;;
12840;SDS011;6487;48.626;12.486;2023-03-12T09:24:29;3.47;;;2.20;;
12840;SDS011;6487;48.626;12.486;2023-03-12T09:26:58;3.93;;;2.33;;
12840;SDS011;6487;48.626;12.486;2023-03-12T09:29:27;2.63;;;2.40;;
12840;SDS011;6487;48.626;12.486;2023-03-12T09:31:56;4.17;;;2.60;;
12840;SDS011;6487;48.626;12.486;2023-03-12T09:34:24;3.23;;;2.60;;
12840;SDS011;6487;48.626;12.486;2023-03-12T09:36:53;4.90;;;2.53;;
12840;SDS011;6487;48.626;12.486;2023-03-12T09:39:21;6.33;;;4.63;;
12840;SDS011;6487;48.626;12.486;2023-03-12T09:41:49;3.37;;;2.73;;
12840;SDS011;6487;48.626;12.486;2023-03-12T09:44:19;4.60;;;2.30;;
12840;SDS011;6487;48.626;12.486;2023-03-12T09:47:00;4.03;;;2.50;;
12840;SDS011;6487;48.626;12.486;2023-03-12T09:49:36;3.63;;;2.03;;
12840;SDS011;6487;48.626;12.486;2023-03-12T09:52:12;3.53;;;2.33;;
12840;SDS011;6487;48.626;12.486;2023-03-12T09:54:51;2.77;;;1.80;;
12840;SDS011;6487;48.626;12.486;2023-03-12T09:57:29;4.80;;;2.50;;
12840;SDS011;6487;48.626;12.486;2023-03-12T09:59:58;3.17;;;2.37;;
12840;SDS011;6487;48.626;12.486;2023-03-12T10:02:32;4.77;;;2.40;;
12840;SDS011;6487;48.626;12.486;2023-03-12T10:05:20;3.90;;;2.43;;
12840;SDS011;6487;48.626;12.486;2023-03-12T10:07:55;5.80;;;2.87;;
12840;SDS011;6487;48.626;12.486;2023-03-12T10:10:49;3.30;;;2.53;;
12840;SDS011;6487;48.626;12.486;2023-03-12T10:16:31;3.90;;;2.10;;
12840;SDS011;6487;48.626;12.486;2023-03-12T10:19:18;4.53;;;2.60;;
12840;SDS011;6487;48.626;12.486;2023-03-12T10:22:00;4.77;;;3.30;;
12840;SDS011;6487;48.626;12.486;2023-03-12T10:24:45;4.23;;;2.97;;
12840;SDS011;6487;48.626;12.486;2023-03-12T10:27:25;3.90;;;2.87;;
12840;SDS011;6487;48.626;12.486;2023-03-12T10:29:56;6.07;;;3.33;;
12840;SDS011;6487;48.626;12.486;2023-03-12T10:32:28;5.00;;;3.60;;
12840;SDS011;6487;48.626;12.486;2023-03-12T10:35:12;4.23;;;2.87;;
12840;SDS011;6487;48.626;12.486;2023-03-12T10:37:46;6.40;;;3.60;;
12840;SDS011;6487;48.626;12.486;2023-03-12T10:40:18;5.67;;;3.33;;
12840;SDS011;6487;48.626;12.486;2023-03-12T10:42:49;5.50;;;3.87;;
12840;SDS011;6487;48.626;12.486;2023-03-12T10:45:20;5.43;;;3.47;;
12840;SDS011;6487;48.626;12.486;2023-03-12T10:47:59;5.27;;;3.83;;
12840;SDS011;6487;48.626;12.486;2023-03-12T10:50:32;8.10;;;6.07;;
12840;SDS011;6487;48.626;12.486;2023-03-12T10:53:12;7.00;;;5.30;;
12840;SDS011;6487;48.626;12.486;2023-03-12T10:55:58;7.90;;;5.90;;
12840;SDS011;6487;48.626;12.486;2023-03-12T10:58:34;8.53;;;6.57;;
12840;SDS011;6487;48.626;12.486;2023-03-12T11:01:05;6.17;;;5.07;;
12840;SDS011;6487;48.626;12.486;2023-03-12T11:03:45;5.57;;;5.07;;
12840;SDS011;6487;48.626;12.486;2023-03-12T11:06:19;5.90;;;5.30;;
12840;SDS011;6487;48.626;12.486;2023-03-12T11:09:03;7.17;;;6.47;;
12840;SDS011;6487;48.626;12.486;2023-03-12T11:11:43;9.67;;;7.97;;
12840;SDS011;6487;48.626;12.486;2023-03-12T11:14:15;9.03;;;7.13;;
12840;SDS011;6487;48.626;12.486;2023-03-12T11:16:45;9.93;;;7.70;;
12840;SDS011;6487;48.626;12.486;2023-03-12T11:19:24;7.27;;;6.53;;
12840;SDS011;6487;48.626;12.486;2023-03-12T11:21:56;8.63;;;6.47;;
12840;SDS011;6487;48.626;12.486;2023-03-12T11:24:27;6.40;;;5.80;;
12840;SDS011;6487;48.626;12.486;2023-03-12T11:26:58;6.93;;;6.23;;
12840;SDS011;6487;48.626;12.486;2023-03-12T11:29:32;7.27;;;6.20;;
12840;SDS011;6487;48.626;12.486;2023-03-12T11:32:08;7.23;;;5.77;;
12840;SDS011;6487;48.626;12.486;2023-03-12T11:34:43;7.77;;;6.13;;
12840;SDS011;6487;48.626;12.486;2023-03-12T11:37:17;6.70;;;6.00;;
12840;SDS011;6487;48.626;12.486;2023-03-12T11:40:00;6.23;;;5.63;;
12840;SDS011;6487;48.626;12.486;2023-03-12T11:42:52;6.33;;;5.57;;
12840;SDS011;6487;48.626;12.486;2023-03-12T11:46:16;6.27;;;5.67;;
12840;SDS011;6487;48.626;12.486;2023-03-12T11:48:55;5.90;;;5.30;;
12840;SDS011;6487;48.626;12.486;2023-03-12T11:51:48;7.33;;;6.63;;
12840;SDS011;6487;48.626;12.486;2023-03-12T11:54:24;6.03;;;5.43;;
12840;SDS011;6487;48.626;12.486;2023-03-12T11:57:24;7.37;;;6.00;;
12840;SDS011;6487;48.626;12.486;2023-03-12T12:00:02;6.40;;;5.73;;
12840;SDS011;6487;48.626;12.486;2023-03-12T12:02:59;8.77;;;6.10;;
12840;SDS011;6487;48.626;12.486;2023-03-12T12:06:00;7.43;;;5.50;;
12840;SDS011;6487;48.626;12.486;2023-03-12T12:08:43;7.47;;;5.90;;
12840;SDS011;6487;48.626;12.486;2023-03-12T12:11:33;6.83;;;5.57;;
12840;SDS011;6487;48.626;12.486;2023-03-12T12:14:14;7.37;;;6.20;;
12840;SDS011;6487;48.626;12.486;2023-03-12T12:17:01;11.03;;;6.10;;
12840;SDS011;6487;48.626;12.486;2023-03-12T12:19:46;10.27;;;6.60;;
12840;SDS011;6487;48.626;12.486;2023-03-12T12:22:38;8.83;;;6.77;;
12840;SDS011;6487;48.626;12.486;2023-03-12T12:25:22;7.80;;;6.47;;
12840;SDS011;6487;48.626;12.486;2023-03-12T12:31:17;8.40;;;6.80;;
12840;SDS011;6487;48.626;12.486;2023-03-12T12:34:00;10.80;;;7.60;;
12840;SDS011;6487;48.626;12.486;2023-03-12T12:36:54;8.07;;;7.17;;
12840;SDS011;6487;48.626;12.486;2023-03-12T12:39:32;8.70;;;6.77;;
12840;SDS011;6487;48.626;12.486;2023-03-12T12:42:07;10.17;;;7.13;;
12840;SDS011;6487;48.626;12.486;2023-03-12T12:44:43;8.40;;;6.70;;
12840;SDS011;6487;48.626;12.486;2023-03-12T12:47:17;8.30;;;6.97;;
12840;SDS011;6487;48.626;12.486;2023-03-12T12:50:01;7.07;;;6.37;;
12840;SDS011;6487;48.626;12.486;2023-03-12T12:52:31;7.80;;;6.20;;
12840;SDS011;6487;48.626;12.486;2023-03-12T12:55:02;7.80;;;5.90;;
12840;SDS011;6487;48.626;12.486;2023-03-12T12:57:40;6.73;;;6.13;;
12840;SDS011;6487;48.626;12.486;2023-03-12T13:00:13;8.27;;;6.47;;
12840;SDS011;6487;48.626;12.486;2023-03-12T13:03:03;7.47;;;6.33;;
12840;SDS011;6487;48.626;12.486;2023-03-12T13:05:39;6.83;;;6.23;;
12840;SDS011;6487;48.626;12.486;2023-03-12T13:11:42;7.87;;;6.23;;
12840;SDS011;6487;48.626;12.486;2023-03-12T13:17:07;7.17;;;5.97;;
12840;SDS011;6487;48.626;12.486;2023-03-12T13:19:48;6.77;;;6.07;;
12840;SDS011;6487;48.626;12.486;2023-03-12T13:22:29;6.93;;;5.33;;
12840;SDS011;6487;48.626;12.486;2023-03-12T13:25:20;7.83;;;6.27;;
12840;SDS011;6487;48.626;12.486;2023-03-12T13:27:58;8.70;;;6.40;;
12840;SDS011;6487;48.626;12.486;2023-03-12T13:30:46;7.17;;;6.40;;
12840;SDS011;6487;48.626;12.486;2023-03-12T13:33:17;7.53;;;6.43;;
12840;SDS011;6487;48.626;12.486;2023-03-12T13:36:01;7.17;;;6.47;;
12840;SDS011;6487;48.626;12.486;2023-03-12T13:38:36;7.07;;;5.90;;
12840;SDS011;6487;48.626;12.486;2023-03-12T13:41:06;9.47;;;6.83;;
12840;SDS011;6487;48.626;12.486;2023-03-12T13:49:16;7.00;;;6.30;;
12840;SDS011;6487;48.626;12.486;2023-03-12T13:51:57;7.20;;;5.40;;
12840;SDS011;6487;48.626;12.486;2023-03-12T13:54:32;7.00;;;5.40;;
12840;SDS011;6487;48.626;12.486;2023-03-12T13:57:11;6.33;;;5.47;;
12840;SDS011;6487;48.626;12.486;2023-03-12T13:59:54;7.87;;;5.53;;
12840;SDS011;6487;48.626;12.486;2023-03-12T14:02:26;5.37;;;4.70;;
12840;SDS011;6487;48.626;12.486;2023-03-12T14:05:02;5.63;;;4.40;;
12840;SDS011;6487;48.626;12.486;2023-03-12T14:10:27;3.60;;;3.30;;
12840;SDS011;6487;48.626;12.486;2023-03-12T14:13:06;4.63;;;3.53;;
12840;SDS011;6487;48.626;12.486;2023-03-12T14:15:50;3.17;;;2.83;;
12840;SDS011;6487;48.626;12.486;2023-03-12T14:18:27;2.50;;;2.30;;
12840;SDS011;6487;48.626;12.486;2023-03-12T14:20:59;2.40;;;2.07;;
12840;SDS011;6487;48.626;12.486;2023-03-12T14:23:33;2.53;;;2.33;;
12840;SDS011;6487;48.626;12.486;2023-03-12T14:26:05;2.40;;;2.07;;
12840;SDS011;6487;48.626;12.486;2023-03-12T14:28:51;3.07;;;1.93;;
12840;SDS011;6487;48.626;12.486;2023-03-12T14:31:25;3.17;;;2.10;;
12840;SDS011;6487;48.626;12.486;2023-03-12T14:33:59;1.87;;;1.73;;
12840;SDS011;6487;48.626;12.486;2023-03-12T14:36:35;2.87;;;2.20;;
12840;SDS011;6487;48.626;12.486;2023-03-12T14:39:12;2.40;;;2.20;;
12840;SDS011;6487;48.626;12.486;2023-03-12T14:41:51;3.07;;;2.20;;
12840;SDS011;6487;48.626;12.486;2023-03-12T14:44:23;3.47;;;2.57;;
12840;SDS011;6487;48.626;12.486;2023-03-12T14:46:57;3.87;;;2.00;;
12840;SDS011;6487;48.626;12.486;2023-03-12T14:49:29;3.70;;;2.43;;
12840;SDS011;6487;48.626;12.486;2023-03-12T14:51:58;2.90;;;2.30;;
12840;SDS011;6487;48.626;12.486;2023-03-12T14:54:26;2.77;;;2.10;;
12840;SDS011;6487;48.626;12.486;2023-03-12T14:56:55;2.47;;;2.20;;
12840;SDS011;6487;48.626;12.486;2023-03-12T14:59:25;4.00;;;2.27;;
12840;SDS011;6487;48.626;12.486;2023-03-12T15:01:58;2.00;;;1.90;;
12840;SDS011;6487;48.626;12.486;2023-03-12T15:04:39;2.10;;;1.90;;
12840;SDS011;6487;48.626;12.486;2023-03-12T15:07:08;2.47;;;2.27;;
12840;SDS011;6487;48.626;12.486;2023-03-12T15:09:42;2.77;;;2.23;;
12840;SDS011;6487;48.626;12.486;2023-03-12T15:12:18;2.20;;;2.00;;
12840;SDS011;6487;48.626;12.486;2023-03-12T15:14:49;1.97;;;1.87;;
12840;SDS011;6487;48.626;12.486;2023-03-12T15:17:23;5.83;;;3.37;;
12840;SDS011;6487;48.626;12.486;2023-03-12T15:19:57;5.07;;;4.50;;
12840;SDS011;6487;48.626;12.486;2023-03-12T15:22:25;3.23;;;2.70;;
12840;SDS011;6487;48.626;12.486;2023-03-12T15:24:54;3.30;;;2.50;;
12840;SDS011;6487;48.626;12.486;2023-03-12T15:27:32;2.90;;;2.10;;
12840;SDS011;6487;48.626;12.486;2023-03-12T15:30:00;2.53;;;2.33;;
12840;SDS011;6487;48.626;12.486;2023-03-12T15:33:08;2.33;;;2.13;;
12840;SDS011;6487;48.626;12.486;2023-03-12T15:35:40;3.50;;;3.13;;
12840;SDS011;6487;48.626;12.486;2023-03-12T15:38:25;3.70;;;3.37;;
12840;SDS011;6487;48.626;12.486;2023-03-12T15:40:53;3.83;;;3.50;;
12840;SDS011;6487;48.626;12.486;2023-03-12T15:43:26;4.03;;;3.03;;